createdAt,value
2024-03-16T00:00:59.212Z,18.35
2024-03-16T00:03:27.744Z,18.40
2024-03-16T00:05:56.130Z,18.44
2024-03-16T00:08:24.632Z,18.35
2024-03-16T00:10:53.116Z,18.32
2024-03-16T00:13:21.589Z,18.36
2024-03-16T00:15:51.175Z,18.39
2024-03-16T00:18:19.657Z,18.30
2024-03-16T00:20:48.053Z,18.22
2024-03-16T00:23:16.503Z,18.28
2024-03-16T00:25:44.875Z,18.30
2024-03-16T00:28:13.505Z,18.29
2024-03-16T00:30:41.990Z,18.21
2024-03-16T00:33:10.420Z,18.25
2024-03-16T00:35:38.881Z,18.29
2024-03-16T00:38:07.339Z,18.29
2024-03-16T00:40:35.773Z,18.20
2024-03-16T00:43:05.622Z,18.29
2024-03-16T00:45:34.302Z,18.19
2024-03-16T00:48:05.471Z,18.18
2024-03-16T00:50:34.090Z,18.23
2024-03-16T00:53:02.775Z,18.28
2024-03-16T00:55:32.912Z,18.27
2024-03-16T00:58:01.515Z,18.24
2024-03-16T01:00:32.212Z,18.26
2024-03-16T01:03:00.739Z,18.24
2024-03-16T01:05:29.979Z,18.26
2024-03-16T01:07:58.593Z,18.22
2024-03-16T01:10:26.996Z,18.24
2024-03-16T01:12:55.462Z,18.18
2024-03-16T01:15:24.048Z,18.13
2024-03-16T01:17:52.664Z,18.10
2024-03-16T01:20:21.802Z,18.22
2024-03-16T01:22:50.184Z,18.17
2024-03-16T01:25:18.626Z,18.11
2024-03-16T01:27:47.337Z,18.07
2024-03-16T01:30:17.482Z,18.05
2024-03-16T01:32:45.913Z,18.04
2024-03-16T01:35:14.454Z,18.00
2024-03-16T01:37:42.919Z,18.03
2024-03-16T01:40:11.791Z,17.95
2024-03-16T01:42:40.274Z,17.88
2024-03-16T01:45:09.485Z,17.80
2024-03-16T01:47:38.037Z,17.84
2024-03-16T01:50:06.868Z,17.91
2024-03-16T01:52:35.304Z,17.88
2024-03-16T01:55:05.395Z,17.89
2024-03-16T01:57:33.996Z,17.84
2024-03-16T02:00:03.414Z,17.87
2024-03-16T02:02:33.018Z,17.76
2024-03-16T02:05:02.684Z,17.77
2024-03-16T02:07:31.119Z,17.77
2024-03-16T02:10:00.077Z,17.78
2024-03-16T02:12:28.578Z,17.76
2024-03-16T02:14:57.442Z,17.73
2024-03-16T02:17:25.930Z,17.75
2024-03-16T02:19:54.400Z,17.72
2024-03-16T02:22:22.838Z,17.66
2024-03-16T02:24:51.271Z,17.59
2024-03-16T02:27:21.511Z,17.48
2024-03-16T02:29:50.138Z,17.43
2024-03-16T02:32:18.528Z,17.43
2024-03-16T02:34:47.100Z,17.37
2024-03-16T02:37:16.033Z,17.34
2024-03-16T02:39:44.490Z,17.23
2024-03-16T02:42:12.964Z,17.23
2024-03-16T02:44:42.149Z,17.18
2024-03-16T02:47:11.594Z,17.01
2024-03-16T02:49:41.726Z,16.96
2024-03-16T02:52:12.052Z,16.93
2024-03-16T02:54:40.700Z,16.88
2024-03-16T02:57:10.138Z,16.76
2024-03-16T02:59:38.556Z,16.57
2024-03-16T03:02:07.031Z,16.27
2024-03-16T03:04:35.997Z,16.11
2024-03-16T03:07:05.919Z,15.95
2024-03-16T03:09:35.283Z,15.85
2024-03-16T03:12:05.963Z,15.67
2024-03-16T03:14:34.480Z,15.56
2024-03-16T03:17:02.909Z,15.49
2024-03-16T03:19:31.728Z,15.52
2024-03-16T03:22:00.232Z,15.44
2024-03-16T03:24:28.716Z,15.31
2024-03-16T03:26:57.100Z,15.31
2024-03-16T03:29:25.653Z,15.21
2024-03-16T03:31:55.092Z,15.22
2024-03-16T03:34:23.545Z,15.16
2024-03-16T03:36:51.959Z,15.18
2024-03-16T03:39:20.493Z,15.17
2024-03-16T03:41:48.936Z,15.15
2024-03-16T03:44:37.002Z,15.14
2024-03-16T03:47:05.804Z,15.09
2024-03-16T03:49:36.948Z,15.06
2024-03-16T03:52:06.559Z,15.06
2024-03-16T03:54:36.231Z,15.09
2024-03-16T03:57:05.653Z,15.15
2024-03-16T03:59:34.318Z,15.10
2024-03-16T04:02:02.843Z,15.08
2024-03-16T04:04:31.300Z,15.04
2024-03-16T04:06:59.689Z,15.06
2024-03-16T04:09:28.229Z,15.08
2024-03-16T04:11:56.661Z,15.03
2024-03-16T04:14:25.092Z,14.94
2024-03-16T04:16:53.509Z,14.92
2024-03-16T04:19:22.005Z,14.86
2024-03-16T04:21:51.435Z,14.92
2024-03-16T04:24:20.188Z,14.93
2024-03-16T04:26:48.653Z,14.92
2024-03-16T04:29:17.564Z,14.86
2024-03-16T04:31:47.104Z,14.83
2024-03-16T04:34:15.640Z,14.80
2024-03-16T04:36:44.181Z,14.74
2024-03-16T04:39:12.636Z,14.68
2024-03-16T04:41:41.039Z,14.72
2024-03-16T04:44:09.542Z,14.77
2024-03-16T04:46:37.964Z,14.75
2024-03-16T04:49:06.912Z,14.71
2024-03-16T04:51:35.388Z,14.68
2024-03-16T04:54:03.903Z,14.55
2024-03-16T04:56:32.359Z,14.48
2024-03-16T04:59:00.739Z,14.43
2024-03-16T05:01:29.227Z,14.40
2024-03-16T05:03:57.934Z,14.36
2024-03-16T05:06:26.869Z,14.32
2024-03-16T05:08:55.309Z,14.28
2024-03-16T05:11:23.781Z,14.30
2024-03-16T05:13:52.280Z,14.34
2024-03-16T05:16:20.713Z,14.29
2024-03-16T05:18:49.475Z,14.29
2024-03-16T05:21:17.890Z,14.27
2024-03-16T05:23:47.051Z,14.28
2024-03-16T05:26:15.697Z,14.28
2024-03-16T05:28:44.078Z,14.36
2024-03-16T05:31:12.754Z,14.32
2024-03-16T05:33:41.285Z,14.23
2024-03-16T05:36:10.889Z,14.11
2024-03-16T05:38:39.347Z,14.08
2024-03-16T05:41:07.989Z,14.06
2024-03-16T05:43:36.402Z,14.00
2024-03-16T05:46:04.953Z,14.00
2024-03-16T05:48:33.492Z,14.01
2024-03-16T05:51:02.765Z,14.00
2024-03-16T05:53:31.212Z,13.96
2024-03-16T05:55:59.946Z,13.95
2024-03-16T05:58:29.942Z,13.97
2024-03-16T06:00:58.654Z,13.98
2024-03-16T06:03:28.442Z,13.97
2024-03-16T06:05:56.933Z,13.99
2024-03-16T06:08:25.325Z,13.99
2024-03-16T06:10:53.753Z,13.97
2024-03-16T06:13:22.256Z,13.98
2024-03-16T06:15:50.701Z,13.96
2024-03-16T06:18:20.061Z,13.99
2024-03-16T06:20:49.766Z,14.04
2024-03-16T06:23:18.194Z,14.06
2024-03-16T06:25:50.190Z,14.08
2024-03-16T06:28:20.559Z,14.12
2024-03-16T06:30:53.405Z,14.15
2024-03-16T06:33:28.623Z,14.13
2024-03-16T06:35:57.245Z,14.08
2024-03-16T06:38:25.696Z,14.09
2024-03-16T06:40:54.834Z,14.06
2024-03-16T06:43:23.219Z,14.10
2024-03-16T06:45:51.867Z,14.18
2024-03-16T06:48:20.353Z,14.13
2024-03-16T06:50:50.786Z,14.13
2024-03-16T06:53:19.326Z,14.15
2024-03-16T06:55:50.625Z,14.21
2024-03-16T06:58:19.163Z,14.26
2024-03-16T07:00:47.619Z,14.26
2024-03-16T07:03:16.880Z,14.24
2024-03-16T07:05:45.259Z,14.22
2024-03-16T07:08:17.177Z,14.21
2024-03-16T07:10:45.904Z,14.29
2024-03-16T07:13:14.621Z,14.27
2024-03-16T07:15:45.267Z,14.25
2024-03-16T07:18:13.993Z,14.26
2024-03-16T07:20:42.819Z,14.27
2024-03-16T07:23:11.260Z,14.28
2024-03-16T07:25:39.721Z,14.33
2024-03-16T07:28:09.534Z,14.39
2024-03-16T07:30:38.104Z,14.41
2024-03-16T07:33:06.763Z,14.48
2024-03-16T07:35:36.462Z,14.55
2024-03-16T07:38:05.994Z,14.65
2024-03-16T07:40:34.520Z,14.71
2024-03-16T07:43:03.914Z,14.74
2024-03-16T07:45:32.919Z,14.75
2024-03-16T07:48:01.452Z,14.74
2024-03-16T07:50:29.932Z,14.74
2024-03-16T07:52:58.293Z,14.74
2024-03-16T07:55:26.755Z,14.73
2024-03-16T07:57:55.242Z,14.74
2024-03-16T08:00:23.686Z,14.73
2024-03-16T08:02:52.115Z,14.78
2024-03-16T08:05:20.571Z,14.77
2024-03-16T08:07:49.160Z,14.78
2024-03-16T08:10:18.398Z,14.82
2024-03-16T08:12:47.137Z,14.84
2024-03-16T08:15:15.654Z,14.83
2024-03-16T08:17:44.061Z,14.85
2024-03-16T08:20:16.403Z,14.88
2024-03-16T08:22:49.614Z,14.95
2024-03-16T08:25:18.738Z,15.01
2024-03-16T08:27:47.246Z,15.12
2024-03-16T08:30:15.774Z,15.23
2024-03-16T08:32:44.447Z,15.31
2024-03-16T08:35:12.889Z,15.40
2024-03-16T08:37:41.288Z,15.48
2024-03-16T08:40:13.683Z,15.53
2024-03-16T08:42:42.730Z,15.47
2024-03-16T08:45:12.147Z,15.44
2024-03-16T08:47:42.801Z,15.44
2024-03-16T08:50:10.799Z,15.34
2024-03-16T08:52:39.451Z,15.23
2024-03-16T08:55:11.421Z,15.12
2024-03-16T08:57:39.950Z,15.02
2024-03-16T09:00:10.441Z,14.99
2024-03-16T09:02:38.953Z,14.99
2024-03-16T09:05:09.513Z,14.97
2024-03-16T09:07:39.715Z,15.02
2024-03-16T09:10:09.159Z,15.08
2024-03-16T09:12:37.662Z,15.16
2024-03-16T09:15:07.649Z,15.31
2024-03-16T09:17:36.191Z,15.40
2024-03-16T09:20:09.247Z,15.59
2024-03-16T09:22:38.036Z,15.78
2024-03-16T09:25:07.780Z,15.92
2024-03-16T09:27:36.758Z,16.11
2024-03-16T09:30:07.389Z,16.13
2024-03-16T09:32:38.136Z,16.20
2024-03-16T09:35:07.477Z,16.27
2024-03-16T09:37:38.088Z,16.30
2024-03-16T09:40:11.386Z,16.35
2024-03-16T09:42:40.282Z,16.37
